sensor_id;sensor_type;location;lat;lon;timestamp;temperature;humidity
12682;DHT22;6405;59.208;18.216;2022-09-09T00:04:29;9.30;99.90
12682;DHT22;6405;59.208;18.216;2022-09-09T00:14:56;9.50;99.90
12682;DHT22;6405;59.208;18.216;2022-09-09T00:17:48;9.60;99.90
12682;DHT22;6405;59.208;18.216;2022-09-09T00:20:35;9.60;99.90
12682;DHT22;6405;59.208;18.216;2022-09-09T00:23:19;9.70;99.90
12682;DHT22;6405;59.208;18.216;2022-09-09T00:28:27;9.80;99.90
12682;DHT22;6405;59.208;18.216;2022-09-09T00:30:59;9.80;99.90
12682;DHT22;6405;59.208;18.216;2022-09-09T00:33:30;9.90;99.90
12682;DHT22;6405;59.208;18.216;2022-09-09T00:35:58;9.90;99.90
12682;DHT22;6405;59.208;18.216;2022-09-09T00:38:33;10.10;99.90
12682;DHT22;6405;59.208;18.216;2022-09-09T00:44:16;10.00;99.90
12682;DHT22;6405;59.208;18.216;2022-09-09T00:50:13;10.10;99.90
12682;DHT22;6405;59.208;18.216;2022-09-09T00:55:42;10.10;99.90
12682;DHT22;6405;59.208;18.216;2022-09-09T00:58:10;10.10;99.90
12682;DHT22;6405;59.208;18.216;2022-09-09T01:01:09;10.20;99.90
12682;DHT22;6405;59.208;18.216;2022-09-09T01:03:54;10.30;99.90
12682;DHT22;6405;59.208;18.216;2022-09-09T01:06:39;10.30;99.90
12682;DHT22;6405;59.208;18.216;2022-09-09T01:09:26;10.30;99.90
12682;DHT22;6405;59.208;18.216;2022-09-09T01:17:14;10.30;99.90
12682;DHT22;6405;59.208;18.216;2022-09-09T01:27:47;10.30;99.90
12682;DHT22;6405;59.208;18.216;2022-09-09T01:30:17;10.30;99.90
12682;DHT22;6405;59.208;18.216;2022-09-09T01:32:56;10.30;99.90
12682;DHT22;6405;59.208;18.216;2022-09-09T01:37:57;10.30;99.90
12682;DHT22;6405;59.208;18.216;2022-09-09T01:40:24;10.30;99.90
12682;DHT22;6405;59.208;18.216;2022-09-09T01:42:51;10.40;99.90
12682;DHT22;6405;59.208;18.216;2022-09-09T01:45:18;10.40;99.90
12682;DHT22;6405;59.208;18.216;2022-09-09T01:47:45;10.60;99.90
12682;DHT22;6405;59.208;18.216;2022-09-09T01:50:15;10.40;99.90
12682;DHT22;6405;59.208;18.216;2022-09-09T01:52:44;10.40;99.90
12682;DHT22;6405;59.208;18.216;2022-09-09T01:55:12;10.40;99.90
12682;DHT22;6405;59.208;18.216;2022-09-09T01:57:52;10.40;99.90
12682;DHT22;6405;59.208;18.216;2022-09-09T02:00:21;10.50;99.90
12682;DHT22;6405;59.208;18.216;2022-09-09T02:05:52;10.60;99.90
12682;DHT22;6405;59.208;18.216;2022-09-09T02:08:45;10.60;99.90
12682;DHT22;6405;59.208;18.216;2022-09-09T02:11:18;10.60;99.90
12682;DHT22;6405;59.208;18.216;2022-09-09T02:13:48;10.70;99.90
12682;DHT22;6405;59.208;18.216;2022-09-09T02:16:34;10.70;99.90
12682;DHT22;6405;59.208;18.216;2022-09-09T02:19:19;10.70;99.90
12682;DHT22;6405;59.208;18.216;2022-09-09T02:21:50;10.70;99.90
12682;DHT22;6405;59.208;18.216;2022-09-09T02:24:17;10.70;99.90
12682;DHT22;6405;59.208;18.216;2022-09-09T02:26:47;10.80;99.90
12682;DHT22;6405;59.208;18.216;2022-09-09T02:29:21;10.80;99.90
12682;DHT22;6405;59.208;18.216;2022-09-09T02:31:49;10.90;99.90
12682;DHT22;6405;59.208;18.216;2022-09-09T02:34:19;10.90;99.90
12682;DHT22;6405;59.208;18.216;2022-09-09T02:36:47;10.90;99.90
12682;DHT22;6405;59.208;18.216;2022-09-09T02:39:14;11.00;99.90
12682;DHT22;6405;59.208;18.216;2022-09-09T02:41:42;11.00;99.90
12682;DHT22;6405;59.208;18.216;2022-09-09T02:44:13;11.00;99.90
12682;DHT22;6405;59.208;18.216;2022-09-09T02:47:06;11.10;99.90
12682;DHT22;6405;59.208;18.216;2022-09-09T02:55:58;11.10;99.90
12682;DHT22;6405;59.208;18.216;2022-09-09T02:58:26;11.10;99.90
12682;DHT22;6405;59.208;18.216;2022-09-09T03:00:53;11.10;99.90
12682;DHT22;6405;59.208;18.216;2022-09-09T03:03:20;11.10;99.90
12682;DHT22;6405;59.208;18.216;2022-09-09T03:05:48;11.10;99.90
12682;DHT22;6405;59.208;18.216;2022-09-09T03:08:15;11.10;99.90
12682;DHT22;6405;59.208;18.216;2022-09-09T03:10:41;11.10;99.90
12682;DHT22;6405;59.208;18.216;2022-09-09T03:13:08;11.10;99.90
12682;DHT22;6405;59.208;18.216;2022-09-09T03:15:35;11.10;99.90
12682;DHT22;6405;59.208;18.216;2022-09-09T03:18:02;11.10;99.90
12682;DHT22;6405;59.208;18.216;2022-09-09T03:20:28;11.10;99.90
12682;DHT22;6405;59.208;18.216;2022-09-09T03:22:56;11.10;99.90
12682;DHT22;6405;59.208;18.216;2022-09-09T03:25:23;11.10;99.90
12682;DHT22;6405;59.208;18.216;2022-09-09T03:27:50;11.10;99.90
12682;DHT22;6405;59.208;18.216;2022-09-09T03:30:22;11.10;99.90
12682;DHT22;6405;59.208;18.216;2022-09-09T03:32:48;11.10;99.90
12682;DHT22;6405;59.208;18.216;2022-09-09T03:35:15;11.10;99.90
12682;DHT22;6405;59.208;18.216;2022-09-09T03:37:42;11.10;99.90
12682;DHT22;6405;59.208;18.216;2022-09-09T03:40:10;11.20;99.90
12682;DHT22;6405;59.208;18.216;2022-09-09T03:42:38;11.20;99.90
12682;DHT22;6405;59.208;18.216;2022-09-09T03:45:07;11.20;99.90
12682;DHT22;6405;59.208;18.216;2022-09-09T03:47:34;11.20;99.90
12682;DHT22;6405;59.208;18.216;2022-09-09T03:50:00;11.20;99.90
12682;DHT22;6405;59.208;18.216;2022-09-09T03:52:26;11.20;99.90
12682;DHT22;6405;59.208;18.216;2022-09-09T03:54:53;11.30;99.90
12682;DHT22;6405;59.208;18.216;2022-09-09T03:57:20;11.30;99.90
12682;DHT22;6405;59.208;18.216;2022-09-09T03:59:47;11.30;99.90
12682;DHT22;6405;59.208;18.216;2022-09-09T04:02:13;11.40;99.90
12682;DHT22;6405;59.208;18.216;2022-09-09T04:04:41;11.40;99.90
12682;DHT22;6405;59.208;18.216;2022-09-09T04:07:08;11.50;99.90
12682;DHT22;6405;59.208;18.216;2022-09-09T04:09:35;11.50;99.90
12682;DHT22;6405;59.208;18.216;2022-09-09T04:12:02;11.50;99.90
12682;DHT22;6405;59.208;18.216;2022-09-09T04:14:30;11.50;99.90
12682;DHT22;6405;59.208;18.216;2022-09-09T04:16:57;11.60;99.90
12682;DHT22;6405;59.208;18.216;2022-09-09T04:19:26;11.60;99.90
12682;DHT22;6405;59.208;18.216;2022-09-09T04:21:53;11.60;99.90
12682;DHT22;6405;59.208;18.216;2022-09-09T04:24:19;11.70;99.90
12682;DHT22;6405;59.208;18.216;2022-09-09T04:26:46;11.70;99.90
12682;DHT22;6405;59.208;18.216;2022-09-09T04:29:13;11.70;99.90
12682;DHT22;6405;59.208;18.216;2022-09-09T04:31:40;11.70;99.90
12682;DHT22;6405;59.208;18.216;2022-09-09T04:34:09;11.70;99.90
12682;DHT22;6405;59.208;18.216;2022-09-09T04:36:35;11.80;99.90
12682;DHT22;6405;59.208;18.216;2022-09-09T04:39:04;11.80;99.90
12682;DHT22;6405;59.208;18.216;2022-09-09T04:41:30;11.80;99.90
12682;DHT22;6405;59.208;18.216;2022-09-09T04:43:58;11.80;99.90
12682;DHT22;6405;59.208;18.216;2022-09-09T04:46:24;11.70;99.90
12682;DHT22;6405;59.208;18.216;2022-09-09T04:48:52;11.70;99.90
12682;DHT22;6405;59.208;18.216;2022-09-09T04:51:19;11.70;99.90
12682;DHT22;6405;59.208;18.216;2022-09-09T04:53:46;11.70;99.90
12682;DHT22;6405;59.208;18.216;2022-09-09T04:56:17;11.70;99.90
12682;DHT22;6405;59.208;18.216;2022-09-09T04:58:43;11.70;99.90
12682;DHT22;6405;59.208;18.216;2022-09-09T05:01:18;11.70;99.90
12682;DHT22;6405;59.208;18.216;2022-09-09T05:03:45;11.70;99.90
12682;DHT22;6405;59.208;18.216;2022-09-09T05:06:14;11.60;99.90
12682;DHT22;6405;59.208;18.216;2022-09-09T05:08:42;11.50;99.90
12682;DHT22;6405;59.208;18.216;2022-09-09T05:13:44;11.30;99.90
12682;DHT22;6405;59.208;18.216;2022-09-09T05:16:12;11.40;99.90
12682;DHT22;6405;59.208;18.216;2022-09-09T05:18:40;11.20;99.90
12682;DHT22;6405;59.208;18.216;2022-09-09T05:21:10;11.20;99.90
12682;DHT22;6405;59.208;18.216;2022-09-09T05:23:37;11.10;99.90
12682;DHT22;6405;59.208;18.216;2022-09-09T05:26:05;11.10;99.90
12682;DHT22;6405;59.208;18.216;2022-09-09T05:28:34;11.10;99.90
12682;DHT22;6405;59.208;18.216;2022-09-09T05:31:06;11.00;99.90
12682;DHT22;6405;59.208;18.216;2022-09-09T05:33:36;11.10;99.90
12682;DHT22;6405;59.208;18.216;2022-09-09T05:36:07;10.90;99.90
12682;DHT22;6405;59.208;18.216;2022-09-09T05:38:36;11.00;99.90
12682;DHT22;6405;59.208;18.216;2022-09-09T05:41:04;11.00;99.90
12682;DHT22;6405;59.208;18.216;2022-09-09T05:43:29;11.10;99.90
12682;DHT22;6405;59.208;18.216;2022-09-09T05:46:04;11.00;99.90
12682;DHT22;6405;59.208;18.216;2022-09-09T05:48:33;11.00;99.90
12682;DHT22;6405;59.208;18.216;2022-09-09T05:51:00;11.00;99.90
12682;DHT22;6405;59.208;18.216;2022-09-09T05:53:29;11.00;99.90
12682;DHT22;6405;59.208;18.216;2022-09-09T05:56:07;11.10;99.90
12682;DHT22;6405;59.208;18.216;2022-09-09T05:58:38;11.10;99.90
12682;DHT22;6405;59.208;18.216;2022-09-09T06:01:08;11.30;99.90
12682;DHT22;6405;59.208;18.216;2022-09-09T06:03:37;11.30;99.90
12682;DHT22;6405;59.208;18.216;2022-09-09T06:06:06;11.30;99.90
12682;DHT22;6405;59.208;18.216;2022-09-09T06:08:36;11.30;99.90
12682;DHT22;6405;59.208;18.216;2022-09-09T06:11:07;11.30;99.90
12682;DHT22;6405;59.208;18.216;2022-09-09T06:13:34;11.40;99.90
12682;DHT22;6405;59.208;18.216;2022-09-09T06:16:05;11.40;99.90
12682;DHT22;6405;59.208;18.216;2022-09-09T06:18:33;11.40;99.90
12682;DHT22;6405;59.208;18.216;2022-09-09T06:21:00;11.40;99.90
12682;DHT22;6405;59.208;18.216;2022-09-09T06:23:28;11.40;99.90
12682;DHT22;6405;59.208;18.216;2022-09-09T06:26:11;11.50;99.90
12682;DHT22;6405;59.208;18.216;2022-09-09T06:28:39;11.40;99.90
12682;DHT22;6405;59.208;18.216;2022-09-09T06:31:10;11.50;99.90
12682;DHT22;6405;59.208;18.216;2022-09-09T06:33:40;11.50;99.90
12682;DHT22;6405;59.208;18.216;2022-09-09T06:36:13;11.60;99.90
12682;DHT22;6405;59.208;18.216;2022-09-09T06:38:42;11.80;99.90
12682;DHT22;6405;59.208;18.216;2022-09-09T06:41:10;11.90;99.90
12682;DHT22;6405;59.208;18.216;2022-09-09T06:43:38;12.00;99.90
12682;DHT22;6405;59.208;18.216;2022-09-09T06:46:17;12.10;99.90
12682;DHT22;6405;59.208;18.216;2022-09-09T06:48:45;12.20;99.90
12682;DHT22;6405;59.208;18.216;2022-09-09T06:51:15;12.20;99.90
12682;DHT22;6405;59.208;18.216;2022-09-09T06:53:44;12.30;99.90
12682;DHT22;6405;59.208;18.216;2022-09-09T06:56:32;12.40;99.90
12682;DHT22;6405;59.208;18.216;2022-09-09T06:59:03;12.40;99.90
12682;DHT22;6405;59.208;18.216;2022-09-09T07:01:33;12.40;99.90
12682;DHT22;6405;59.208;18.216;2022-09-09T07:04:02;12.40;99.90
12682;DHT22;6405;59.208;18.216;2022-09-09T07:06:35;12.50;99.90
12682;DHT22;6405;59.208;18.216;2022-09-09T07:09:05;12.60;99.90
12682;DHT22;6405;59.208;18.216;2022-09-09T07:11:36;12.70;99.90
12682;DHT22;6405;59.208;18.216;2022-09-09T07:14:04;12.80;99.90
12682;DHT22;6405;59.208;18.216;2022-09-09T07:16:30;13.00;99.90
12682;DHT22;6405;59.208;18.216;2022-09-09T07:18:59;13.10;99.90
12682;DHT22;6405;59.208;18.216;2022-09-09T07:21:28;13.20;99.90
12682;DHT22;6405;59.208;18.216;2022-09-09T07:23:55;13.30;99.90
12682;DHT22;6405;59.208;18.216;2022-09-09T07:26:25;13.40;99.90
12682;DHT22;6405;59.208;18.216;2022-09-09T07:28:53;13.40;99.90
12682;DHT22;6405;59.208;18.216;2022-09-09T07:31:25;13.50;99.90
12682;DHT22;6405;59.208;18.216;2022-09-09T07:33:54;13.60;99.90
12682;DHT22;6405;59.208;18.216;2022-09-09T07:36:24;13.70;99.90
12682;DHT22;6405;59.208;18.216;2022-09-09T07:38:55;13.70;99.90
12682;DHT22;6405;59.208;18.216;2022-09-09T07:41:33;13.80;99.90
12682;DHT22;6405;59.208;18.216;2022-09-09T07:44:06;13.80;99.90
12682;DHT22;6405;59.208;18.216;2022-09-09T07:46:34;14.00;99.90
12682;DHT22;6405;59.208;18.216;2022-09-09T07:49:03;14.10;99.90
12682;DHT22;6405;59.208;18.216;2022-09-09T07:51:32;14.20;99.90
12682;DHT22;6405;59.208;18.216;2022-09-09T07:54:04;14.10;99.90
12682;DHT22;6405;59.208;18.216;2022-09-09T07:56:32;14.20;99.90
12682;DHT22;6405;59.208;18.216;2022-09-09T07:58:59;14.10;99.90
12682;DHT22;6405;59.208;18.216;2022-09-09T08:01:52;14.00;99.90
12682;DHT22;6405;59.208;18.216;2022-09-09T08:04:21;14.00;99.90
12682;DHT22;6405;59.208;18.216;2022-09-09T08:06:56;14.00;99.90
12682;DHT22;6405;59.208;18.216;2022-09-09T08:09:24;14.20;99.90
12682;DHT22;6405;59.208;18.216;2022-09-09T08:11:56;14.30;99.90
12682;DHT22;6405;59.208;18.216;2022-09-09T08:14:22;14.40;99.90
12682;DHT22;6405;59.208;18.216;2022-09-09T08:16:50;14.60;99.90
12682;DHT22;6405;59.208;18.216;2022-09-09T08:19:18;14.50;99.90
12682;DHT22;6405;59.208;18.216;2022-09-09T08:21:46;14.30;99.90
12682;DHT22;6405;59.208;18.216;2022-09-09T08:24:13;14.20;99.90
12682;DHT22;6405;59.208;18.216;2022-09-09T08:26:48;14.20;99.90
12682;DHT22;6405;59.208;18.216;2022-09-09T08:29:17;14.20;99.90
12682;DHT22;6405;59.208;18.216;2022-09-09T08:31:51;14.10;99.90
12682;DHT22;6405;59.208;18.216;2022-09-09T08:34:19;14.20;99.90
12682;DHT22;6405;59.208;18.216;2022-09-09T08:36:48;14.40;99.90
12682;DHT22;6405;59.208;18.216;2022-09-09T08:39:18;14.50;99.90
12682;DHT22;6405;59.208;18.216;2022-09-09T08:41:55;14.40;99.90
12682;DHT22;6405;59.208;18.216;2022-09-09T08:55:57;14.90;99.90
12682;DHT22;6405;59.208;18.216;2022-09-09T08:58:30;14.80;99.90
12682;DHT22;6405;59.208;18.216;2022-09-09T09:09:09;14.80;99.90
12682;DHT22;6405;59.208;18.216;2022-09-09T09:11:51;15.00;99.90
12682;DHT22;6405;59.208;18.216;2022-09-09T09:14:24;15.30;99.90
12682;DHT22;6405;59.208;18.216;2022-09-09T09:17:01;15.20;99.90
12682;DHT22;6405;59.208;18.216;2022-09-09T09:19:34;15.20;99.90
12682;DHT22;6405;59.208;18.216;2022-09-09T09:22:22;15.30;99.90
12682;DHT22;6405;59.208;18.216;2022-09-09T09:27:34;15.00;99.90
12682;DHT22;6405;59.208;18.216;2022-09-09T09:32:48;14.80;99.90
12682;DHT22;6405;59.208;18.216;2022-09-09T09:35:17;14.90;99.90
12682;DHT22;6405;59.208;18.216;2022-09-09T09:37:43;14.90;99.90
12682;DHT22;6405;59.208;18.216;2022-09-09T09:40:18;14.90;99.90
12682;DHT22;6405;59.208;18.216;2022-09-09T09:43:16;14.90;99.90
12682;DHT22;6405;59.208;18.216;2022-09-09T09:45:42;14.90;99.90
12682;DHT22;6405;59.208;18.216;2022-09-09T09:48:12;15.10;99.90
12682;DHT22;6405;59.208;18.216;2022-09-09T09:51:00;15.30;99.90
12682;DHT22;6405;59.208;18.216;2022-09-09T09:53:31;15.70;99.90
12682;DHT22;6405;59.208;18.216;2022-09-09T09:56:04;15.80;99.90
12682;DHT22;6405;59.208;18.216;2022-09-09T09:58:33;15.80;99.90
12682;DHT22;6405;59.208;18.216;2022-09-09T10:01:03;15.50;99.90
12682;DHT22;6405;59.208;18.216;2022-09-09T10:03:33;15.30;99.90
12682;DHT22;6405;59.208;18.216;2022-09-09T10:06:05;15.20;99.90
12682;DHT22;6405;59.208;18.216;2022-09-09T10:08:43;15.40;99.90
12682;DHT22;6405;59.208;18.216;2022-09-09T10:11:36;15.60;99.90
12682;DHT22;6405;59.208;18.216;2022-09-09T10:14:24;16.10;99.90
12682;DHT22;6405;59.208;18.216;2022-09-09T10:19:35;16.10;99.90
12682;DHT22;6405;59.208;18.216;2022-09-09T10:33:16;15.50;99.90
12682;DHT22;6405;59.208;18.216;2022-09-09T10:35:52;15.30;99.90
12682;DHT22;6405;59.208;18.216;2022-09-09T10:38:46;15.00;99.90
12682;DHT22;6405;59.208;18.216;2022-09-09T10:41:19;14.90;99.90
12682;DHT22;6405;59.208;18.216;2022-09-09T10:44:03;14.90;99.90
12682;DHT22;6405;59.208;18.216;2022-09-09T10:55:18;15.80;99.90
12682;DHT22;6405;59.208;18.216;2022-09-09T10:57:48;15.90;99.90
12682;DHT22;6405;59.208;18.216;2022-09-09T11:00:21;16.00;99.90
12682;DHT22;6405;59.208;18.216;2022-09-09T11:03:21;16.10;99.90
12682;DHT22;6405;59.208;18.216;2022-09-09T11:06:05;16.00;99.90
12682;DHT22;6405;59.208;18.216;2022-09-09T11:08:36;16.00;99.90
12682;DHT22;6405;59.208;18.216;2022-09-09T11:14:15;16.00;99.90
12682;DHT22;6405;59.208;18.216;2022-09-09T11:16:49;15.90;99.90
12682;DHT22;6405;59.208;18.216;2022-09-09T11:19:41;15.70;99.90
12682;DHT22;6405;59.208;18.216;2022-09-09T11:22:32;15.70;99.90
12682;DHT22;6405;59.208;18.216;2022-09-09T11:33:08;16.90;99.90
12682;DHT22;6405;59.208;18.216;2022-09-09T11:38:28;17.10;99.90
12682;DHT22;6405;59.208;18.216;2022-09-09T11:41:05;17.20;99.90
12682;DHT22;6405;59.208;18.216;2022-09-09T11:43:42;17.00;99.90
12682;DHT22;6405;59.208;18.216;2022-09-09T11:46:13;17.00;99.90
12682;DHT22;6405;59.208;18.216;2022-09-09T11:48:43;17.00;99.90
12682;DHT22;6405;59.208;18.216;2022-09-09T11:51:12;16.80;99.90
12682;DHT22;6405;59.208;18.216;2022-09-09T11:54:00;16.90;99.90
12682;DHT22;6405;59.208;18.216;2022-09-09T11:56:43;17.20;99.90
12682;DHT22;6405;59.208;18.216;2022-09-09T11:59:37;16.90;99.90
12682;DHT22;6405;59.208;18.216;2022-09-09T12:02:14;16.80;99.90
12682;DHT22;6405;59.208;18.216;2022-09-09T12:05:07;16.80;99.90
12682;DHT22;6405;59.208;18.216;2022-09-09T12:07:38;16.70;99.90
12682;DHT22;6405;59.208;18.216;2022-09-09T12:10:29;16.70;99.90
12682;DHT22;6405;59.208;18.216;2022-09-09T12:12:55;16.50;99.90
12682;DHT22;6405;59.208;18.216;2022-09-09T12:15:34;16.60;99.90
12682;DHT22;6405;59.208;18.216;2022-09-09T12:18:01;16.70;99.90
12682;DHT22;6405;59.208;18.216;2022-09-09T12:20:37;16.40;99.90
12682;DHT22;6405;59.208;18.216;2022-09-09T12:28:38;16.60;99.90
12682;DHT22;6405;59.208;18.216;2022-09-09T12:33:51;16.70;99.90
12682;DHT22;6405;59.208;18.216;2022-09-09T12:36:30;17.00;99.90
12682;DHT22;6405;59.208;18.216;2022-09-09T12:39:10;17.50;99.90
12682;DHT22;6405;59.208;18.216;2022-09-09T12:41:51;17.70;99.90
12682;DHT22;6405;59.208;18.216;2022-09-09T12:44:25;17.60;99.90
12682;DHT22;6405;59.208;18.216;2022-09-09T12:46:52;17.60;99.90
12682;DHT22;6405;59.208;18.216;2022-09-09T12:49:28;17.70;99.90
12682;DHT22;6405;59.208;18.216;2022-09-09T12:51:58;17.90;99.90
12682;DHT22;6405;59.208;18.216;2022-09-09T12:54:26;17.70;99.90
12682;DHT22;6405;59.208;18.216;2022-09-09T12:56:54;17.20;99.90
12682;DHT22;6405;59.208;18.216;2022-09-09T12:59:36;16.70;99.90
12682;DHT22;6405;59.208;18.216;2022-09-09T13:02:19;16.20;99.90
12682;DHT22;6405;59.208;18.216;2022-09-09T13:04:47;16.00;99.90
12682;DHT22;6405;59.208;18.216;2022-09-09T13:07:14;15.90;99.90
12682;DHT22;6405;59.208;18.216;2022-09-09T13:09:44;15.90;99.90
12682;DHT22;6405;59.208;18.216;2022-09-09T13:12:20;16.10;99.90
12682;DHT22;6405;59.208;18.216;2022-09-09T13:14:52;16.20;99.90
12682;DHT22;6405;59.208;18.216;2022-09-09T13:17:22;16.60;99.90
12682;DHT22;6405;59.208;18.216;2022-09-09T13:19:50;16.90;99.90
12682;DHT22;6405;59.208;18.216;2022-09-09T13:22:27;17.20;99.90
12682;DHT22;6405;59.208;18.216;2022-09-09T13:25:23;17.50;99.90
12682;DHT22;6405;59.208;18.216;2022-09-09T13:27:55;17.30;99.90
12682;DHT22;6405;59.208;18.216;2022-09-09T13:30:31;16.90;99.90
12682;DHT22;6405;59.208;18.216;2022-09-09T13:35:44;17.00;99.90
12682;DHT22;6405;59.208;18.216;2022-09-09T13:38:15;17.20;99.90
12682;DHT22;6405;59.208;18.216;2022-09-09T13:40:57;17.40;99.90
12682;DHT22;6405;59.208;18.216;2022-09-09T13:43:26;17.50;99.90
12682;DHT22;6405;59.208;18.216;2022-09-09T13:46:04;16.90;99.90
12682;DHT22;6405;59.208;18.216;2022-09-09T13:48:31;16.60;99.90
12682;DHT22;6405;59.208;18.216;2022-09-09T13:51:01;16.40;99.90
12682;DHT22;6405;59.208;18.216;2022-09-09T13:53:29;16.30;99.90
12682;DHT22;6405;59.208;18.216;2022-09-09T13:55:57;16.00;99.90
12682;DHT22;6405;59.208;18.216;2022-09-09T13:58:24;15.70;99.90
12682;DHT22;6405;59.208;18.216;2022-09-09T14:00:53;15.40;99.90
12682;DHT22;6405;59.208;18.216;2022-09-09T14:03:20;15.20;99.90
12682;DHT22;6405;59.208;18.216;2022-09-09T14:05:47;15.40;99.90
12682;DHT22;6405;59.208;18.216;2022-09-09T14:08:24;15.70;99.90
12682;DHT22;6405;59.208;18.216;2022-09-09T14:10:51;15.70;99.90
12682;DHT22;6405;59.208;18.216;2022-09-09T14:13:17;16.10;99.90
12682;DHT22;6405;59.208;18.216;2022-09-09T14:15:44;16.40;99.90
12682;DHT22;6405;59.208;18.216;2022-09-09T14:18:12;16.60;99.90
12682;DHT22;6405;59.208;18.216;2022-09-09T14:20:40;16.70;99.90
12682;DHT22;6405;59.208;18.216;2022-09-09T14:23:10;16.50;99.90
12682;DHT22;6405;59.208;18.216;2022-09-09T14:25:40;16.50;99.90
12682;DHT22;6405;59.208;18.216;2022-09-09T14:28:09;16.50;99.90
12682;DHT22;6405;59.208;18.216;2022-09-09T14:30:38;16.50;99.90
12682;DHT22;6405;59.208;18.216;2022-09-09T14:33:05;16.60;99.90
12682;DHT22;6405;59.208;18.216;2022-09-09T14:35:32;16.50;99.90
12682;DHT22;6405;59.208;18.216;2022-09-09T14:38:00;16.40;99.90
12682;DHT22;6405;59.208;18.216;2022-09-09T14:40:28;16.60;99.90
12682;DHT22;6405;59.208;18.216;2022-09-09T14:42:55;16.70;99.90
12682;DHT22;6405;59.208;18.216;2022-09-09T14:45:23;16.70;99.90
12682;DHT22;6405;59.208;18.216;2022-09-09T14:47:51;16.70;99.90
12682;DHT22;6405;59.208;18.216;2022-09-09T14:50:20;16.70;99.90
12682;DHT22;6405;59.208;18.216;2022-09-09T14:52:47;16.50;99.90
12682;DHT22;6405;59.208;18.216;2022-09-09T14:55:14;16.50;99.90
12682;DHT22;6405;59.208;18.216;2022-09-09T14:57:40;16.40;99.90
12682;DHT22;6405;59.208;18.216;2022-09-09T15:00:09;16.20;99.90
12682;DHT22;6405;59.208;18.216;2022-09-09T15:02:35;16.10;99.90
12682;DHT22;6405;59.208;18.216;2022-09-09T15:05:02;16.00;99.90
12682;DHT22;6405;59.208;18.216;2022-09-09T15:07:30;15.90;99.90
12682;DHT22;6405;59.208;18.216;2022-09-09T15:09:59;15.60;99.90
12682;DHT22;6405;59.208;18.216;2022-09-09T15:12:26;15.40;99.90
12682;DHT22;6405;59.208;18.216;2022-09-09T15:14:55;15.40;99.90
12682;DHT22;6405;59.208;18.216;2022-09-09T15:17:21;15.30;99.90
12682;DHT22;6405;59.208;18.216;2022-09-09T15:19:48;15.10;99.90
12682;DHT22;6405;59.208;18.216;2022-09-09T15:22:16;14.90;99.90
12682;DHT22;6405;59.208;18.216;2022-09-09T15:24:43;14.70;99.90
12682;DHT22;6405;59.208;18.216;2022-09-09T15:27:10;14.70;99.90
12682;DHT22;6405;59.208;18.216;2022-09-09T15:29:37;14.60;99.90
12682;DHT22;6405;59.208;18.216;2022-09-09T15:32:04;14.50;99.90
12682;DHT22;6405;59.208;18.216;2022-09-09T15:34:32;14.40;99.90
12682;DHT22;6405;59.208;18.216;2022-09-09T15:36:58;14.30;99.90
12682;DHT22;6405;59.208;18.216;2022-09-09T15:39:27;14.20;99.90
12682;DHT22;6405;59.208;18.216;2022-09-09T15:41:54;14.20;99.90
12682;DHT22;6405;59.208;18.216;2022-09-09T15:44:20;14.00;99.90
12682;DHT22;6405;59.208;18.216;2022-09-09T15:46:51;14.00;99.90
12682;DHT22;6405;59.208;18.216;2022-09-09T15:49:23;13.90;99.90
12682;DHT22;6405;59.208;18.216;2022-09-09T15:51:55;13.80;99.90
12682;DHT22;6405;59.208;18.216;2022-09-09T15:54:25;13.80;99.90
12682;DHT22;6405;59.208;18.216;2022-09-09T15:56:57;13.80;99.90
12682;DHT22;6405;59.208;18.216;2022-09-09T15:59:26;13.80;99.90
12682;DHT22;6405;59.208;18.216;2022-09-09T16:01:54;13.90;99.90
12682;DHT22;6405;59.208;18.216;2022-09-09T16:04:22;13.90;99.90
12682;DHT22;6405;59.208;18.216;2022-09-09T16:06:54;14.00;99.90
12682;DHT22;6405;59.208;18.216;2022-09-09T16:09:21;14.10;99.90
12682;DHT22;6405;59.208;18.216;2022-09-09T16:11:48;14.10;99.90
12682;DHT22;6405;59.208;18.216;2022-09-09T16:14:15;14.10;99.90
12682;DHT22;6405;59.208;18.216;2022-09-09T16:16:42;14.00;99.90
12682;DHT22;6405;59.208;18.216;2022-09-09T16:19:11;13.90;99.90
12682;DHT22;6405;59.208;18.216;2022-09-09T16:21:42;13.80;99.90
12682;DHT22;6405;59.208;18.216;2022-09-09T16:24:12;13.70;99.90
12682;DHT22;6405;59.208;18.216;2022-09-09T16:26:44;13.60;99.90
12682;DHT22;6405;59.208;18.216;2022-09-09T16:29:12;13.50;99.90
12682;DHT22;6405;59.208;18.216;2022-09-09T16:31:40;13.40;99.90
12682;DHT22;6405;59.208;18.216;2022-09-09T16:34:07;13.30;99.90
12682;DHT22;6405;59.208;18.216;2022-09-09T16:36:38;13.20;99.90
12682;DHT22;6405;59.208;18.216;2022-09-09T16:39:13;13.10;99.90
12682;DHT22;6405;59.208;18.216;2022-09-09T16:41:42;13.00;99.90
12682;DHT22;6405;59.208;18.216;2022-09-09T16:44:12;12.80;99.90
12682;DHT22;6405;59.208;18.216;2022-09-09T16:46:41;12.70;99.90
12682;DHT22;6405;59.208;18.216;2022-09-09T16:49:11;12.60;99.90
12682;DHT22;6405;59.208;18.216;2022-09-09T16:51:40;12.50;99.90
12682;DHT22;6405;59.208;18.216;2022-09-09T16:54:09;12.40;99.90
12682;DHT22;6405;59.208;18.216;2022-09-09T16:56:38;12.30;99.90
12682;DHT22;6405;59.208;18.216;2022-09-09T16:59:11;12.10;99.90
12682;DHT22;6405;59.208;18.216;2022-09-09T17:01:39;12.00;99.90
12682;DHT22;6405;59.208;18.216;2022-09-09T17:04:19;11.90;99.90
12682;DHT22;6405;59.208;18.216;2022-09-09T17:06:52;11.80;99.90
12682;DHT22;6405;59.208;18.216;2022-09-09T17:09:19;11.70;99.90
12682;DHT22;6405;59.208;18.216;2022-09-09T17:11:46;11.60;99.90
12682;DHT22;6405;59.208;18.216;2022-09-09T17:14:16;11.50;99.90
12682;DHT22;6405;59.208;18.216;2022-09-09T17:16:44;11.40;99.90
12682;DHT22;6405;59.208;18.216;2022-09-09T17:19:12;11.30;99.90
12682;DHT22;6405;59.208;18.216;2022-09-09T17:21:39;11.20;99.90
12682;DHT22;6405;59.208;18.216;2022-09-09T17:24:06;11.10;99.90
12682;DHT22;6405;59.208;18.216;2022-09-09T17:26:35;11.00;99.90
12682;DHT22;6405;59.208;18.216;2022-09-09T17:29:02;11.00;99.90
12682;DHT22;6405;59.208;18.216;2022-09-09T17:31:30;10.90;99.90
12682;DHT22;6405;59.208;18.216;2022-09-09T17:33:59;10.80;99.90
12682;DHT22;6405;59.208;18.216;2022-09-09T17:36:29;10.70;99.90
12682;DHT22;6405;59.208;18.216;2022-09-09T17:38:56;10.60;99.90
12682;DHT22;6405;59.208;18.216;2022-09-09T17:41:29;10.50;99.90
12682;DHT22;6405;59.208;18.216;2022-09-09T17:43:56;10.40;99.90
12682;DHT22;6405;59.208;18.216;2022-09-09T17:46:33;10.30;99.90
12682;DHT22;6405;59.208;18.216;2022-09-09T17:49:07;10.20;99.90
12682;DHT22;6405;59.208;18.216;2022-09-09T17:51:35;10.10;99.90
12682;DHT22;6405;59.208;18.216;2022-09-09T17:54:06;10.00;99.90
12682;DHT22;6405;59.208;18.216;2022-09-09T17:56:35;9.90;99.90
12682;DHT22;6405;59.208;18.216;2022-09-09T17:59:04;9.80;99.90
12682;DHT22;6405;59.208;18.216;2022-09-09T18:01:34;9.80;99.90